Time;durP1;ratioP1;P1;durP2;ratioP2;P2;SDS_P1;SDS_P2;PMS_P1;PMS_P2;Temp;Humidity;BMP_temperature;BMP_pressure;BME280_temperature;BME280_humidity;BME280_pressure;Samples;Min_cycle;Max_cycle;Signal;HPM_P1;HPM_P2
2022/01/30 00:01:02;;;;;;;9.63;4.32;;;;;;;5.66;59.13;99685.16;7685698;32;40767;-75
2022/01/30 00:05:19;;;;;;;11.55;4.90;;;;;;;6.01;57.24;99668.78;7705491;32;38709;-75
2022/01/30 00:09:35;;;;;;;9.80;4.80;;;;;;;5.77;58.43;99662.62;7739288;32;37918;-76
2022/01/30 00:13:51;;;;;;;6.70;4.15;;;;;;;5.98;57.70;99647.59;7737811;32;39337;-76
2022/01/30 00:26:47;;;;;;;8.20;3.72;;;;;;;5.35;60.28;99621.59;7738961;32;37399;-76
2022/01/30 00:31:04;;;;;;;7.30;4.47;;;;;;;5.64;58.99;99596.16;7738866;32;39333;-76
2022/01/30 00:35:21;;;;;;;5.87;3.50;;;;;;;4.95;59.73;99598.94;7738706;32;40031;-76
2022/01/30 00:39:37;;;;;;;6.80;4.03;;;;;;;5.64;57.99;99601.56;7738702;32;38643;-75
2022/01/30 00:43:53;;;;;;;8.63;4.10;;;;;;;5.37;58.13;99603.25;7738651;32;37862;-76
2022/01/30 00:48:09;;;;;;;7.12;4.12;;;;;;;5.40;58.86;99600.06;7738669;32;39349;-76
2022/01/30 00:52:26;;;;;;;9.30;4.28;;;;;;;5.44;58.17;99593.09;7738565;32;39680;-75
2022/01/30 00:56:42;;;;;;;7.28;4.22;;;;;;;5.87;57.45;99559.19;7737941;32;37510;-75
2022/01/30 01:00:58;;;;;;;7.37;3.83;;;;;;;5.77;57.72;99567.16;7737334;32;37166;-75
2022/01/30 01:05:15;;;;;;;5.37;3.62;;;;;;;5.97;56.86;99559.37;7738272;32;39335;-76
2022/01/30 01:09:36;;;;;;;6.43;3.60;;;;;;;5.51;56.84;99545.06;7738332;32;39911;-76
2022/01/30 01:27:24;;;;;;;9.85;4.82;;;;;;;5.69;55.39;99533.22;7738131;32;40014;-76
2022/01/30 01:31:40;;;;;;;7.60;4.20;;;;;;;5.35;56.01;99524.25;7737957;32;37913;-77
2022/01/30 01:35:56;;;;;;;8.43;4.50;;;;;;;5.43;55.84;99529.25;7738158;32;37355;-76
2022/01/30 01:40:12;;;;;;;6.15;3.97;;;;;;;5.56;55.78;99518.13;7737998;32;39325;-77
2022/01/30 01:44:35;;;;;;;6.45;4.25;;;;;;;5.85;54.69;99512.63;7737830;32;40760;-74
2022/01/30 01:48:52;;;;;;;7.90;4.70;;;;;;;5.89;54.80;99497.53;7737964;32;38619;-76
2022/01/30 01:53:10;;;;;;;7.57;4.00;;;;;;;5.91;54.38;99494.59;7737753;32;37335;-75
2022/01/30 01:57:27;;;;;;;6.93;4.25;;;;;;;5.92;54.27;99498.94;7737918;32;38195;-75
2022/01/30 02:01:48;;;;;;;11.32;4.70;;;;;;;5.81;54.67;99489.81;7737706;32;39872;-75
2022/01/30 02:06:07;;;;;;;7.25;4.12;;;;;;;5.45;55.34;99483.88;7737428;32;38794;-75
2022/01/30 02:10:37;;;;;;;8.55;4.20;;;;;;;5.35;56.04;99462.09;7736420;32;37055;-75
2022/01/30 02:24:08;;;;;;;9.10;4.85;;;;;;;5.29;55.82;99471.16;7728197;32;38470;-75
2022/01/30 02:28:28;;;;;;;8.02;4.90;;;;;;;5.92;53.43;99461.06;7735966;32;37076;-75
2022/01/30 02:32:44;;;;;;;8.55;4.80;;;;;;;6.12;52.08;99455.97;7735803;32;39847;-75
2022/01/30 02:37:00;;;;;;;8.57;4.95;;;;;;;5.14;54.66;99458.19;7735758;32;39637;-75
2022/01/30 02:41:16;;;;;;;8.60;4.43;;;;;;;5.88;52.43;99451.78;7736759;32;38521;-76
2022/01/30 02:45:35;;;;;;;13.05;5.50;;;;;;;5.31;55.89;99433.91;7736774;32;37073;-75
2022/01/30 02:54:28;;;;;;;11.20;4.97;;;;;;;4.84;57.65;99427.72;7736463;32;40741;-75
2022/01/30 02:58:44;;;;;;;8.60;4.87;;;;;;;4.71;58.85;99430.72;7736197;32;37803;-75
2022/01/30 03:03:00;;;;;;;9.20;5.55;;;;;;;4.86;58.08;99441.81;7736384;32;37035;-75
2022/01/30 03:07:17;;;;;;;12.20;5.68;;;;;;;4.30;59.21;99443.44;7736028;32;40156;-75
2022/01/30 03:11:33;;;;;;;9.15;5.70;;;;;;;4.18;59.01;99429.97;7735993;32;40050;-75
2022/01/30 03:15:49;;;;;;;9.48;5.18;;;;;;;3.86;60.28;99435.75;7735770;32;38548;-75
2022/01/30 03:20:06;;;;;;;10.25;5.68;;;;;;;4.33;59.73;99429.47;7737751;32;36943;-75
2022/01/30 03:24:22;;;;;;;8.43;5.05;;;;;;;3.92;61.79;99417.81;7739699;32;39290;-75
2022/01/30 03:28:40;;;;;;;8.77;4.53;;;;;;;4.19;61.96;99420.81;7739634;32;39933;-76
2022/01/30 03:32:57;;;;;;;6.95;4.55;;;;;;;4.46;61.85;99421.06;7739496;32;37604;-75
2022/01/30 03:37:13;;;;;;;8.63;4.80;;;;;;;4.29;62.96;99426.44;7739520;32;37852;-76
2022/01/30 03:41:29;;;;;;;6.82;4.37;;;;;;;4.63;62.68;99423.00;7739419;32;39416;-78
2022/01/30 03:45:47;;;;;;;7.97;4.50;;;;;;;4.47;67.02;99424.59;7739203;32;40013;-75
2022/01/30 03:50:04;;;;;;;5.78;3.70;;;;;;;5.30;64.85;99424.16;7739349;32;38728;-75
2022/01/30 03:54:20;;;;;;;6.45;3.67;;;;;;;5.49;64.47;99400.41;7738027;32;37818;-75
2022/01/30 03:58:37;;;;;;;4.62;3.37;;;;;;;5.13;67.17;99406.06;7739150;32;40112;-75
2022/01/30 04:02:53;;;;;;;7.45;3.47;;;;;;;5.87;64.82;99386.03;7739201;32;39887;-75
2022/01/30 04:07:10;;;;;;;4.28;2.97;;;;;;;5.65;66.94;99383.31;7738861;32;37798;-76
2022/01/30 04:11:28;;;;;;;6.15;3.15;;;;;;;5.87;66.32;99386.03;7739026;32;37185;-76
2022/01/30 04:15:44;;;;;;;4.80;3.40;;;;;;;6.26;65.07;99394.13;7739086;32;38397;-76
2022/01/30 04:20:01;;;;;;;5.53;3.35;;;;;;;5.78;66.68;99379.44;7738920;32;39897;-76
2022/01/30 04:24:17;;;;;;;4.93;3.45;;;;;;;6.00;66.17;99393.00;7738915;32;38536;-77
2022/01/30 04:28:33;;;;;;;5.10;3.45;;;;;;;5.68;67.74;99361.19;7738935;32;37165;-76
2022/01/30 04:32:49;;;;;;;6.07;3.20;;;;;;;5.64;67.59;99358.16;7738032;32;40081;-76
2022/01/30 04:37:14;;;;;;;5.10;3.65;;;;;;;5.67;67.28;99375.75;7738743;32;39580;-76
2022/01/30 04:41:58;;;;;;;9.32;3.97;;;;;;;5.30;67.64;99362.81;7738608;32;38519;-76
2022/01/30 05:09:04;;;;;;;4.22;2.25;;;;;;;5.71;70.49;99359.84;7734665;32;39448;-76
2022/01/30 05:13:25;;;;;;;3.00;1.98;;;;;;;5.98;70.95;99354.53;7738324;32;39825;-76
2022/01/30 05:17:43;;;;;;;2.30;1.98;;;;;;;6.03;71.10;99356.50;7738334;32;37968;-76
2022/01/30 05:21:59;;;;;;;2.60;2.30;;;;;;;6.12;70.96;99349.56;7737345;32;37027;-76
2022/01/30 05:26:15;;;;;;;2.60;2.30;;;;;;;6.32;70.44;99338.16;7738244;32;39056;-76
2022/01/30 05:30:32;;;;;;;4.53;2.00;;;;;;;6.46;70.22;99347.50;7738192;32;39970;-76
2022/01/30 05:34:48;;;;;;;2.40;2.20;;;;;;;6.58;70.24;99345.44;7737978;32;38659;-75
2022/01/30 05:39:05;;;;;;;2.72;2.28;;;;;;;6.58;70.03;99352.75;7738095;32;38069;-75
2022/01/30 05:43:22;;;;;;;2.20;2.10;;;;;;;6.51;70.40;99349.44;7737835;32;39372;-75
2022/01/30 05:47:45;;;;;;;3.62;2.62;;;;;;;6.26;71.51;99377.06;7738032;32;39917;-77
2022/01/30 05:52:02;;;;;;;3.33;2.42;;;;;;;5.63;74.80;99375.44;7736786;32;37703;-76
2022/01/30 05:56:18;;;;;;;2.40;2.20;;;;;;;6.05;73.41;99365.19;7737754;32;37101;-76
2022/01/30 06:00:34;;;;;;;1.90;1.80;;;;;;;6.08;72.86;99378.22;7738383;32;39953;-78
2022/01/30 06:04:50;;;;;;;3.55;1.77;;;;;;;5.88;71.07;99386.84;7737421;32;40843;-76
2022/01/30 06:09:19;;;;;;;2.28;1.90;;;;;;;5.56;72.68;99371.28;7736259;32;37776;-76
2022/01/30 06:13:35;;;;;;;2.28;1.95;;;;;;;5.52;73.54;99370.13;7737491;32;38066;-75
2022/01/30 06:17:51;;;;;;;2.35;2.25;;;;;;;5.59;73.46;99395.12;7737558;32;39010;-75
2022/01/30 06:22:07;;;;;;;4.50;2.05;;;;;;;5.57;73.55;99381.03;7737313;32;40515;-75
2022/01/30 06:26:23;;;;;;;3.08;2.00;;;;;;;5.83;71.59;99363.28;7737144;32;37567;-75
2022/01/30 06:30:40;;;;;;;1.83;1.70;;;;;;;5.90;70.20;99363.06;7737245;32;36730;-76
2022/01/30 06:34:56;;;;;;;2.62;2.33;;;;;;;6.18;68.80;99359.38;7737334;32;38788;-77
2022/01/30 06:39:12;;;;;;;1.80;1.70;;;;;;;6.24;67.99;99357.56;7736899;32;39991;-75
2022/01/30 06:43:28;;;;;;;1.73;1.62;;;;;;;6.23;68.18;99351.31;7736734;32;38427;-75
2022/01/30 06:47:45;;;;;;;2.03;1.80;;;;;;;6.19;68.14;99366.41;7736604;32;36989;-74
2022/01/30 06:52:01;;;;;;;1.90;1.80;;;;;;;6.56;67.15;99376.59;7736383;32;40042;-75
2022/01/30 06:56:17;;;;;;;1.98;1.87;;;;;;;6.17;68.50;99384.81;7739087;32;39711;-74
2022/01/30 07:00:33;;;;;;;5.30;2.33;;;;;;;5.70;69.61;99390.69;7740018;32;38322;-76
2022/01/30 07:04:49;;;;;;;3.62;2.50;;;;;;;6.06;67.09;99388.47;7739799;32;37681;-78
2022/01/30 07:09:06;;;;;;;4.07;2.40;;;;;;;5.81;68.00;99414.91;7739911;32;39775;-75
2022/01/30 07:13:22;;;;;;;3.92;2.50;;;;;;;5.85;66.85;99415.25;7739742;32;39804;-75
2022/01/30 07:17:38;;;;;;;5.53;2.20;;;;;;;5.80;66.53;99405.16;7739703;32;38430;-76
2022/01/30 07:21:54;;;;;;;2.67;2.10;;;;;;;6.44;62.51;99411.94;7739744;32;37851;-76
2022/01/30 07:26:10;;;;;;;2.22;2.00;;;;;;;6.43;62.61;99415.69;7739613;32;39327;-78
2022/01/30 07:30:26;;;;;;;2.10;1.90;;;;;;;6.27;60.36;99417.41;7739404;32;39957;-79
2022/01/30 07:34:44;;;;;;;1.80;1.70;;;;;;;6.48;58.75;99423.06;7739319;32;38556;-79
2022/01/30 07:39:00;;;;;;;2.15;1.77;;;;;;;6.87;57.28;99425.66;7739559;32;37272;-76
2022/01/30 07:43:16;;;;;;;4.22;1.70;;;;;;;7.31;55.86;99420.06;7739196;32;39984;-76
2022/01/30 07:47:33;;;;;;;4.05;1.70;;;;;;;7.47;55.28;99421.81;7738122;32;39962;-76
2022/01/30 07:51:49;;;;;;;2.28;1.70;;;;;;;7.52;54.55;99427.28;7739227;32;37912;-75
2022/01/30 07:56:05;;;;;;;3.03;2.00;;;;;;;7.07;55.70;99431.28;7739187;32;37953;-76
2022/01/30 08:00:21;;;;;;;5.75;2.15;;;;;;;7.04;54.32;99434.50;7739146;32;40053;-77
2022/01/30 08:04:37;;;;;;;6.37;2.30;;;;;;;7.29;53.47;99441.19;7737263;32;40912;-77
2022/01/30 08:08:53;;;;;;;1.92;1.83;;;;;;;7.33;54.07;99436.91;7738241;32;38666;-77
2022/01/30 08:13:10;;;;;;;5.65;2.00;;;;;;;7.19;54.37;99441.12;7739156;32;37093;-77
2022/01/30 08:17:26;;;;;;;4.07;2.17;;;;;;;7.24;53.54;99431.13;7738907;32;39457;-77
2022/01/30 08:21:42;;;;;;;4.82;1.92;;;;;;;7.28;52.21;99439.59;7738918;32;39894;-78
2022/01/30 08:25:58;;;;;;;2.10;1.90;;;;;;;7.34;51.00;99427.69;7738685;32;37777;-77
2022/01/30 08:30:16;;;;;;;2.55;1.80;;;;;;;7.89;50.72;99431.84;7738768;32;36878;-76
2022/01/30 08:34:32;;;;;;;3.72;2.10;;;;;;;7.65;50.87;99457.75;7738464;32;39380;-76
2022/01/30 08:38:48;;;;;;;5.90;2.12;;;;;;;8.04;50.39;99457.47;7738335;32;39991;-77
2022/01/30 08:43:04;;;;;;;5.30;2.05;;;;;;;8.02;49.71;99467.75;7738296;32;37924;-76
2022/01/30 08:47:20;;;;;;;4.25;2.20;;;;;;;7.83;49.46;99462.78;7738404;32;37028;-76
2022/01/30 08:51:36;;;;;;;4.00;2.15;;;;;;;7.87;50.98;99434.00;7738363;32;39450;-79
2022/01/30 08:55:52;;;;;;;3.67;2.30;;;;;;;7.85;50.42;99428.03;7738265;32;40704;-79
2022/01/30 09:00:12;;;;;;;3.15;1.80;;;;;;;8.15;49.51;99461.84;7738070;32;38527;-77
2022/01/30 09:04:28;;;;;;;8.10;2.00;;;;;;;8.17;48.88;99450.72;7738036;32;37339;-79
2022/01/30 09:08:44;;;;;;;3.28;1.70;;;;;;;8.26;46.32;99488.00;7738143;32;40098;-79
2022/01/30 09:13:02;;;;;;;3.87;2.00;;;;;;;8.21;46.66;99438.25;7738137;32;40014;-79
2022/01/30 09:17:19;;;;;;;9.23;2.28;;;;;;;7.68;47.61;99420.06;7737847;32;38180;-78
2022/01/30 09:21:37;;;;;;;3.35;2.00;;;;;;;8.02;46.77;99408.03;7737947;32;37186;-80
2022/01/30 09:25:54;;;;;;;2.97;1.87;;;;;;;8.57;45.58;99438.41;7738005;32;39304;-78
2022/01/30 09:30:11;;;;;;;6.37;2.15;;;;;;;9.05;43.20;99424.66;7737817;32;40913;-78
2022/01/30 09:34:27;;;;;;;3.67;1.73;;;;;;;9.58;43.01;99436.09;7737783;32;38734;-77
2022/01/30 09:38:43;;;;;;;4.05;1.70;;;;;;;9.87;41.65;99430.88;7738033;32;37757;-78
2022/01/30 09:42:59;;;;;;;3.67;1.85;;;;;;;9.80;42.66;99424.91;7737788;32;39468;-77
2022/01/30 09:47:17;;;;;;;4.07;1.75;;;;;;;9.83;41.11;99435.25;7736568;32;39992;-76
2022/01/30 09:51:34;;;;;;;6.15;1.90;;;;;;;9.09;42.41;99442.91;7737799;32;39412;-77
2022/01/30 09:55:50;;;;;;;2.83;1.83;;;;;;;8.84;42.15;99430.88;7737829;32;37611;-76
2022/01/30 10:00:08;;;;;;;2.55;1.65;;;;;;;8.38;43.62;99438.06;7727234;32;331788;-76
2022/01/30 10:04:24;;;;;;;2.12;1.77;;;;;;;8.00;44.91;99453.63;7737491;32;39766;-77
2022/01/30 10:08:46;;;;;;;3.67;2.05;;;;;;;8.32;44.06;99450.00;7737433;32;38545;-76
2022/01/30 10:13:12;;;;;;;5.93;2.40;;;;;;;8.46;43.67;99415.84;7737675;32;37111;-76
2022/01/30 10:17:47;;;;;;;5.43;1.87;;;;;;;7.74;46.22;99439.09;7737270;32;39347;-78
2022/01/30 10:22:22;;;;;;;5.00;2.00;;;;;;;7.43;48.52;99455.13;7737345;32;40188;-78
2022/01/30 10:26:38;;;;;;;2.08;1.70;;;;;;;7.39;49.07;99454.84;7737092;32;38553;-77
2022/01/30 10:30:59;;;;;;;3.67;1.80;;;;;;;7.58;48.60;99457.97;7736104;32;37304;-77
2022/01/30 10:35:15;;;;;;;3.75;2.20;;;;;;;8.41;45.24;99449.19;7737084;32;40018;-76
2022/01/30 10:39:33;;;;;;;3.53;1.85;;;;;;;8.58;43.80;99456.38;7736968;32;39746;-74
2022/01/30 10:44:02;;;;;;;6.18;2.12;;;;;;;7.79;44.32;99458.13;7736635;32;38628;-76
2022/01/30 10:48:21;;;;;;;2.28;1.67;;;;;;;7.89;43.54;99453.56;7729113;32;37173;-76
2022/01/30 10:52:54;;;;;;;6.53;2.00;;;;;;;7.36;44.35;99463.50;7724879;32;39333;-75
2022/01/30 10:57:12;;;;;;;3.30;1.75;;;;;;;6.73;47.58;99468.59;7735511;32;40937;-77
2022/01/30 11:01:31;;;;;;;5.12;2.03;;;;;;;6.89;48.06;99456.84;7735807;32;37339;-77
2022/01/30 11:05:59;;;;;;;5.93;2.37;;;;;;;6.63;47.78;99465.78;7735444;32;35593;-75
2022/01/30 11:10:25;;;;;;;5.45;2.47;;;;;;;7.09;47.26;99461.66;7735658;32;40484;-78
2022/01/30 11:19:05;;;;;;;4.68;2.00;;;;;;;6.66;46.82;99439.00;7735564;32;38715;-80
2022/01/30 11:23:24;;;;;;;5.45;2.20;;;;;;;6.84;46.55;99448.66;7735395;32;37074;-78
2022/01/30 11:27:43;;;;;;;3.83;2.45;;;;;;;6.63;46.68;99439.50;7734134;32;39573;-80
2022/01/30 11:32:00;;;;;;;3.92;2.10;;;;;;;6.67;45.87;99432.47;7735050;32;39666;-77
2022/01/30 11:36:16;;;;;;;7.12;2.37;;;;;;;6.31;46.81;99429.41;7733745;32;37606;-77
2022/01/30 11:40:32;;;;;;;4.07;2.00;;;;;;;6.38;46.45;99429.19;7735263;32;37626;-76
2022/01/30 11:45:03;;;;;;;2.65;2.03;;;;;;;6.71;45.30;99422.78;7739067;32;39886;-78
2022/01/30 11:50:08;;;;;;;4.78;2.45;;;;;;;6.12;46.64;99442.44;7738516;32;40068;-77
2022/01/30 11:54:45;;;;;;;6.18;2.12;;;;;;;6.65;46.35;99426.50;7734502;32;37680;-76
2022/01/30 11:59:05;;;;;;;6.28;2.20;;;;;;;6.43;46.57;99431.13;7738406;32;37222;-76
2022/01/30 12:03:29;;;;;;;5.62;2.47;;;;;;;6.62;46.18;99450.56;7737293;32;38134;-77
2022/01/30 12:07:47;;;;;;;9.07;2.37;;;;;;;6.36;46.88;99432.16;7738192;32;40146;-77
2022/01/30 12:12:05;;;;;;;4.07;2.25;;;;;;;6.52;45.29;99424.19;7737878;32;38659;-77
2022/01/30 12:16:51;;;;;;;6.25;2.30;;;;;;;6.75;43.75;99423.91;7738077;32;37898;-77
2022/01/30 12:21:16;;;;;;;6.78;2.60;;;;;;;6.92;43.28;99395.91;7738334;32;40237;-78
2022/01/30 12:25:34;;;;;;;7.75;2.10;;;;;;;7.23;43.07;99396.16;7738212;32;39988;-76
2022/01/30 12:29:51;;;;;;;5.45;2.40;;;;;;;7.08;42.74;99378.69;7738218;32;37778;-78
2022/01/30 12:34:08;;;;;;;6.78;2.40;;;;;;;7.08;43.42;99367.03;7738311;32;37134;-79
2022/01/30 12:38:34;;;;;;;5.57;2.37;;;;;;;7.29;42.97;99365.28;7738087;32;39977;-77
2022/01/30 12:42:50;;;;;;;5.78;2.62;;;;;;;7.07;43.40;99374.34;7738044;32;39961;-78
2022/01/30 12:47:06;;;;;;;8.90;2.40;;;;;;;6.43;44.75;99393.22;7737815;32;37926;-77
2022/01/30 12:51:22;;;;;;;8.07;2.42;;;;;;;6.18;44.93;99378.34;7737147;32;37893;-74
2022/01/30 12:55:39;;;;;;;5.22;2.20;;;;;;;6.42;44.06;99368.03;7736874;32;39455;-82
2022/01/30 12:59:59;;;;;;;5.32;2.58;;;;;;;7.31;42.15;99377.50;7737873;32;39994;-80
2022/01/30 13:04:18;;;;;;;4.35;2.30;;;;;;;7.21;42.57;99357.62;7737747;32;38625;-77
2022/01/30 13:08:54;;;;;;;6.65;2.62;;;;;;;6.58;42.87;99374.44;7737603;32;38288;-78
2022/01/30 13:13:10;;;;;;;3.30;2.35;;;;;;;6.82;42.80;99368.72;7737865;32;38471;-82
2022/01/30 13:17:30;;;;;;;5.18;2.50;;;;;;;6.84;43.17;99377.38;7737620;32;39705;-80
2022/01/30 13:21:47;;;;;;;3.10;1.98;;;;;;;6.51;43.52;99376.53;7737408;32;38644;-78
2022/01/30 13:26:03;;;;;;;3.22;2.10;;;;;;;6.08;45.03;99384.44;7737248;32;37327;-76
2022/01/30 13:30:29;;;;;;;3.45;2.28;;;;;;;6.41;44.72;99377.22;7736380;32;40148;-78
2022/01/30 13:34:49;;;;;;;5.15;2.55;;;;;;;6.04;46.80;99380.59;7729851;32;40148;-78
2022/01/30 13:39:11;;;;;;;6.07;2.60;;;;;;;5.92;47.14;99396.94;7737342;32;37822;-78
2022/01/30 13:43:35;;;;;;;4.07;2.25;;;;;;;5.99;46.16;99394.88;7737076;32;37655;-77
2022/01/30 13:47:52;;;;;;;7.37;3.50;;;;;;;5.97;45.13;99418.69;7737591;32;39364;-82
2022/01/30 13:52:10;;;;;;;6.47;2.55;;;;;;;6.32;44.25;99387.69;7737490;32;40775;-74
2022/01/30 16:51:59;;;;;;;8.70;3.58;;;;;;;3.93;48.91;99621.75;7896461;31;296336;-92
2022/01/30 16:56:17;;;;;;;10.05;3.50;;;;;;;5.07;45.77;99598.88;7867929;31;38372;-89
2022/01/30 17:05:04;;;;;;;11.05;3.55;;;;;;;5.84;42.99;99646.25;8173739;26;20470;-76
2022/01/30 17:09:32;;;;;;;12.65;3.60;;;;;;;5.71;43.53;99657.37;7757279;32;39674;-76
2022/01/30 17:13:53;;;;;;;5.37;2.67;;;;;;;5.89;43.07;99659.88;7757276;32;39748;-76
2022/01/30 17:18:11;;;;;;;13.62;3.47;;;;;;;6.47;42.42;99662.44;7756970;32;37647;-77
2022/01/30 17:22:27;;;;;;;8.25;2.97;;;;;;;6.28;41.97;99673.56;7757899;32;36840;-76
2022/01/30 17:26:44;;;;;;;7.47;2.87;;;;;;;6.26;42.16;99664.03;7756731;32;38648;-75
2022/01/30 17:31:00;;;;;;;9.38;3.25;;;;;;;5.88;42.76;99685.31;7757245;32;39980;-77
2022/01/30 17:35:17;;;;;;;5.03;2.83;;;;;;;5.95;42.16;99702.19;7756675;32;37345;-78
2022/01/30 17:39:34;;;;;;;9.95;3.70;;;;;;;6.19;40.93;99696.66;7756402;32;36830;-76
2022/01/30 17:43:50;;;;;;;14.93;3.35;;;;;;;6.35;40.84;99695.06;7756102;32;39973;-77
2022/01/30 17:48:07;;;;;;;11.12;3.53;;;;;;;6.46;41.10;99701.44;7755614;32;40465;-76
2022/01/30 17:52:24;;;;;;;13.00;3.53;;;;;;;6.28;40.82;99703.34;7756327;32;38370;-76
2022/01/30 17:56:42;;;;;;;11.82;3.50;;;;;;;6.00;41.34;99699.62;7755379;32;36885;-76
2022/01/30 18:01:01;;;;;;;11.00;3.40;;;;;;;6.46;40.13;99701.44;7748168;32;39120;-77
2022/01/30 18:05:18;;;;;;;12.52;3.78;;;;;;;5.94;41.29;99688.91;7737545;32;40803;-77
2022/01/30 18:09:37;;;;;;;10.93;3.20;;;;;;;5.73;40.42;99731.00;7737627;32;37690;-76
2022/01/30 18:13:58;;;;;;;12.85;4.15;;;;;;;6.23;40.15;99702.41;7737769;32;37785;-75
2022/01/30 18:18:16;;;;;;;10.60;3.37;;;;;;;6.28;39.84;99710.63;7736055;32;38769;-78
2022/01/30 18:22:34;;;;;;;14.48;4.05;;;;;;;6.50;39.56;99691.75;7738031;32;40055;-77
2022/01/30 18:27:00;;;;;;;11.30;3.78;;;;;;;6.04;39.97;99709.94;7736170;32;38588;-76
2022/01/30 18:31:19;;;;;;;12.00;3.80;;;;;;;6.35;39.77;99712.13;7736704;32;37711;-74
2022/01/30 18:35:40;;;;;;;14.48;3.90;;;;;;;5.61;40.99;99731.88;7737402;32;39135;-76
2022/01/30 18:40:00;;;;;;;9.45;3.67;;;;;;;6.18;40.35;99730.22;7735525;32;40842;-76
2022/01/30 18:44:17;;;;;;;7.53;3.37;;;;;;;6.09;40.54;99737.09;7737644;32;38550;-77
2022/01/30 18:48:38;;;;;;;8.00;2.95;;;;;;;6.35;40.00;99736.47;7735456;32;37638;-75
2022/01/30 18:52:54;;;;;;;14.23;4.62;;;;;;;6.32;40.64;99728.03;7736018;32;39029;-75
2022/01/30 18:57:12;;;;;;;14.65;3.33;;;;;;;6.01;41.16;99720.19;7737260;32;39978;-76
2022/01/30 19:01:28;;;;;;;15.45;3.95;;;;;;;6.32;40.75;99712.59;7737217;32;37863;-76
2022/01/30 19:05:47;;;;;;;17.00;3.70;;;;;;;5.93;40.85;99701.63;7736697;32;36817;-77
2022/01/30 19:10:04;;;;;;;11.32;3.28;;;;;;;5.99;40.97;99692.56;7737194;32;38181;-75
2022/01/30 19:14:20;;;;;;;14.32;3.60;;;;;;;6.06;40.78;99703.22;7735402;32;40868;-77
2022/01/30 19:18:36;;;;;;;14.63;4.30;;;;;;;6.00;41.14;99694.22;7737619;32;37608;-79
2022/01/30 19:22:53;;;;;;;21.23;7.78;;;;;;;5.78;41.68;99687.81;7737545;32;36756;-78
2022/01/30 19:27:12;;;;;;;17.37;5.78;;;;;;;5.90;41.45;99683.16;7737577;32;39099;-78
2022/01/30 19:31:28;;;;;;;8.82;3.90;;;;;;;5.82;41.56;99680.84;7737266;32;41272;-78
2022/01/30 19:35:47;;;;;;;8.32;4.03;;;;;;;5.87;40.84;99659.31;7737178;32;38445;-78
2022/01/30 19:40:05;;;;;;;9.73;3.72;;;;;;;5.64;41.07;99650.25;7737233;32;37082;-78
2022/01/30 19:44:22;;;;;;;9.20;3.72;;;;;;;5.74;41.00;99663.13;7737356;32;39201;-79
2022/01/30 19:48:39;;;;;;;9.10;3.22;;;;;;;5.64;41.48;99647.53;7737144;32;39905;-79
2022/01/30 19:52:58;;;;;;;11.88;3.70;;;;;;;5.40;42.40;99656.81;7737093;32;36778;-78
2022/01/30 19:57:14;;;;;;;10.10;3.20;;;;;;;5.63;41.65;99651.28;7736975;32;37011;-79
2022/01/30 20:01:30;;;;;;;8.75;3.22;;;;;;;5.56;42.58;99649.81;7730560;32;40295;-76
2022/01/30 20:05:48;;;;;;;12.60;3.70;;;;;;;5.23;43.06;99640.53;7736119;32;40899;-78
2022/01/30 20:10:05;;;;;;;19.95;7.07;;;;;;;5.04;43.93;99648.00;7736365;32;38077;-79
2022/01/30 20:14:25;;;;;;;8.70;3.50;;;;;;;5.89;42.76;99649.06;7736956;32;36693;-79
2022/01/30 20:18:42;;;;;;;5.85;3.28;;;;;;;5.73;43.04;99641.75;7737716;32;39131;-78
2022/01/30 20:22:58;;;;;;;12.05;3.70;;;;;;;5.40;43.70;99646.81;7736386;32;39896;-78
2022/01/30 20:27:15;;;;;;;13.85;3.95;;;;;;;5.05;43.43;99631.56;7736520;32;39168;-79
2022/01/30 20:31:31;;;;;;;8.15;3.40;;;;;;;5.13;43.53;99645.75;7734287;32;37039;-76
2022/01/30 20:35:47;;;;;;;9.07;4.25;;;;;;;5.17;43.41;99639.59;7735846;32;39199;-77
2022/01/30 20:40:06;;;;;;;11.73;4.00;;;;;;;5.36;42.59;99655.66;7734482;32;40804;-77
2022/01/30 20:44:38;;;;;;;7.95;3.58;;;;;;;5.49;42.38;99654.56;7733429;32;37811;-78
2022/01/30 20:48:54;;;;;;;6.22;2.95;;;;;;;5.12;43.46;99647.59;7735748;32;36404;-77
2022/01/30 20:53:14;;;;;;;12.43;3.03;;;;;;;5.49;42.78;99622.91;7733494;32;39171;-77
2022/01/30 20:57:30;;;;;;;11.52;3.78;;;;;;;5.27;43.06;99636.28;7735779;32;38813;-78
2022/01/30 21:01:51;;;;;;;13.38;3.60;;;;;;;5.17;43.17;99638.78;7732723;32;37843;-78
2022/01/30 21:06:07;;;;;;;7.18;3.17;;;;;;;5.19;43.13;99634.81;7735062;32;37751;-76
2022/01/30 21:10:27;;;;;;;8.52;3.28;;;;;;;5.17;43.47;99631.50;7735101;32;39834;-79
2022/01/30 21:14:44;;;;;;;13.65;3.45;;;;;;;5.03;43.78;99630.13;7734461;32;40064;-81
2022/01/30 21:19:00;;;;;;;7.50;3.17;;;;;;;4.90;44.01;99625.84;7735335;32;37963;-78
2022/01/30 21:23:19;;;;;;;9.73;3.33;;;;;;;5.23;43.41;99613.53;7735278;32;36185;-76
2022/01/30 21:27:37;;;;;;;7.10;3.83;;;;;;;4.79;43.80;99619.37;7703244;32;39228;-78
2022/01/30 21:31:53;;;;;;;11.43;4.20;;;;;;;4.74;44.50;99632.78;7681233;32;41851;-76
2022/01/30 21:36:10;;;;;;;12.60;3.42;;;;;;;5.23;43.21;99635.94;7682098;32;37574;-80
2022/01/30 21:40:26;;;;;;;10.82;3.25;;;;;;;4.97;43.50;99633.81;7670692;32;37092;-79
2022/01/30 21:44:42;;;;;;;13.52;3.83;;;;;;;4.68;44.59;99647.25;7670553;32;39384;-81
2022/01/30 21:48:58;;;;;;;7.68;3.65;;;;;;;4.76;44.50;99646.03;7684475;32;39956;-80
2022/01/30 21:53:14;;;;;;;11.35;4.10;;;;;;;4.55;44.78;99653.69;7682498;32;39043;-80
2022/01/30 21:57:31;;;;;;;9.80;3.80;;;;;;;4.55;45.08;99650.19;7684356;32;37809;-80
2022/01/30 22:01:47;;;;;;;8.90;4.40;;;;;;;4.66;44.50;99660.97;7671238;32;39192;-81
2022/01/30 22:06:05;;;;;;;12.27;4.22;;;;;;;4.44;45.00;99668.03;7670669;32;40010;-81
2022/01/30 22:10:22;;;;;;;14.63;4.35;;;;;;;4.47;44.96;99681.06;7671538;32;37638;-82
2022/01/30 22:14:41;;;;;;;9.55;3.45;;;;;;;4.76;44.30;99683.84;7669877;32;36897;-80
2022/01/30 22:18:57;;;;;;;16.23;3.95;;;;;;;4.27;44.74;99687.59;7684911;32;39242;-83
2022/01/30 22:23:13;;;;;;;9.00;3.20;;;;;;;4.76;43.88;99684.69;7685453;32;40857;-80
2022/01/30 22:27:29;;;;;;;11.43;4.50;;;;;;;4.48;44.25;99699.72;7684638;32;37940;-81
2022/01/30 22:31:46;;;;;;;10.55;3.33;;;;;;;4.87;43.64;99707.34;7684146;32;37742;-81
2022/01/30 22:36:03;;;;;;;13.20;3.95;;;;;;;4.33;44.56;99723.66;7684820;32;39117;-82
2022/01/30 22:40:21;;;;;;;12.82;3.83;;;;;;;4.33;44.70;99729.06;7685044;32;39567;-82
2022/01/30 22:44:37;;;;;;;11.30;3.85;;;;;;;4.34;44.73;99736.06;7684397;32;37932;-78
2022/01/30 22:48:53;;;;;;;12.68;4.70;;;;;;;4.62;44.12;99726.47;7684815;32;37027;-79
2022/01/30 22:53:09;;;;;;;12.25;3.72;;;;;;;4.12;45.39;99727.69;7685229;32;39176;-77
2022/01/30 22:57:25;;;;;;;9.30;4.12;;;;;;;4.72;43.62;99724.00;7684421;32;40038;-78
2022/01/30 23:01:41;;;;;;;15.10;4.70;;;;;;;4.86;43.80;99716.50;7677510;32;37899;-77
2022/01/30 23:05:58;;;;;;;15.77;4.72;;;;;;;5.22;43.01;99709.16;7684296;32;37270;-78
2022/01/30 23:10:14;;;;;;;13.13;3.80;;;;;;;4.76;43.73;99690.09;7684605;32;39159;-78
2022/01/30 23:14:31;;;;;;;11.98;3.42;;;;;;;4.40;44.06;99681.16;7684878;32;40240;-80
2022/01/30 23:18:47;;;;;;;11.35;4.12;;;;;;;4.72;44.17;99672.69;7684307;32;37959;-80
2022/01/30 23:23:03;;;;;;;15.77;4.87;;;;;;;4.35;45.00;99666.72;7683890;32;37713;-78
2022/01/30 23:27:25;;;;;;;17.55;4.53;;;;;;;4.44;45.12;99671.53;7684891;32;39588;-79
2022/01/30 23:31:42;;;;;;;15.68;4.50;;;;;;;4.46;44.61;99668.59;7685082;32;40111;-78
2022/01/30 23:35:58;;;;;;;18.58;4.30;;;;;;;4.63;44.41;99660.63;7684782;32;38010;-79
2022/01/30 23:40:14;;;;;;;17.37;4.85;;;;;;;4.60;44.32;99645.69;7684841;32;37718;-78
2022/01/30 23:44:34;;;;;;;12.85;3.97;;;;;;;4.56;44.15;99657.22;7684979;32;39867;-78
2022/01/30 23:48:50;;;;;;;11.27;4.07;;;;;;;4.61;44.26;99654.66;7684826;32;40829;-79
2022/01/30 23:53:06;;;;;;;13.65;3.95;;;;;;;4.85;43.58;99656.25;7684600;32;38691;-77
2022/01/30 23:57:24;;;;;;;13.07;3.87;;;;;;;4.10;45.07;99665.87;7684422;32;37041;-79
